sensor_id;sensor_type;location;lat;lon;timestamp;temperature;humidity
37242;DHT22;23135;51.078;12.108;2023-01-26T00:01:53;-0.20;99.90
37242;DHT22;23135;51.078;12.108;2023-01-26T00:04:19;-0.20;99.90
37242;DHT22;23135;51.078;12.108;2023-01-26T00:06:45;-0.30;99.90
37242;DHT22;23135;51.078;12.108;2023-01-26T00:09:12;-0.30;99.90
37242;DHT22;23135;51.078;12.108;2023-01-26T00:11:38;-0.30;99.90
37242;DHT22;23135;51.078;12.108;2023-01-26T00:14:04;-0.30;99.90
37242;DHT22;23135;51.078;12.108;2023-01-26T00:16:29;-0.30;99.90
37242;DHT22;23135;51.078;12.108;2023-01-26T00:18:55;-0.30;99.90
37242;DHT22;23135;51.078;12.108;2023-01-26T00:21:22;-0.30;99.90
37242;DHT22;23135;51.078;12.108;2023-01-26T00:23:48;-0.30;99.90
37242;DHT22;23135;51.078;12.108;2023-01-26T00:26:17;-0.30;99.90
37242;DHT22;23135;51.078;12.108;2023-01-26T00:28:43;-0.30;99.90
37242;DHT22;23135;51.078;12.108;2023-01-26T00:31:23;-0.30;99.90
37242;DHT22;23135;51.078;12.108;2023-01-26T00:33:50;-0.30;99.90
37242;DHT22;23135;51.078;12.108;2023-01-26T00:36:16;-0.30;99.90
37242;DHT22;23135;51.078;12.108;2023-01-26T00:38:42;-0.30;99.90
37242;DHT22;23135;51.078;12.108;2023-01-26T00:41:09;-0.30;99.90
37242;DHT22;23135;51.078;12.108;2023-01-26T00:43:54;-0.30;99.90
37242;DHT22;23135;51.078;12.108;2023-01-26T00:46:20;-0.30;99.90
37242;DHT22;23135;51.078;12.108;2023-01-26T00:48:45;-0.40;99.90
37242;DHT22;23135;51.078;12.108;2023-01-26T00:51:11;-0.40;99.90
37242;DHT22;23135;51.078;12.108;2023-01-26T00:53:36;-0.40;99.90
37242;DHT22;23135;51.078;12.108;2023-01-26T00:56:02;-0.40;99.90
37242;DHT22;23135;51.078;12.108;2023-01-26T00:58:27;-0.40;99.90
37242;DHT22;23135;51.078;12.108;2023-01-26T01:00:53;-0.40;99.90
37242;DHT22;23135;51.078;12.108;2023-01-26T01:03:18;-0.40;99.90
37242;DHT22;23135;51.078;12.108;2023-01-26T01:05:44;-0.40;99.90
37242;DHT22;23135;51.078;12.108;2023-01-26T01:08:09;-0.40;99.90
37242;DHT22;23135;51.078;12.108;2023-01-26T01:10:35;-0.40;99.90
37242;DHT22;23135;51.078;12.108;2023-01-26T01:13:01;-0.40;99.90
37242;DHT22;23135;51.078;12.108;2023-01-26T01:15:26;-0.40;99.90
37242;DHT22;23135;51.078;12.108;2023-01-26T01:17:52;-0.40;99.90
37242;DHT22;23135;51.078;12.108;2023-01-26T01:20:17;-0.40;99.90
37242;DHT22;23135;51.078;12.108;2023-01-26T01:22:43;-0.40;99.90
37242;DHT22;23135;51.078;12.108;2023-01-26T01:25:09;-0.40;99.90
37242;DHT22;23135;51.078;12.108;2023-01-26T01:27:34;-0.40;99.90
37242;DHT22;23135;51.078;12.108;2023-01-26T01:30:00;-0.40;99.90
37242;DHT22;23135;51.078;12.108;2023-01-26T01:32:26;-0.40;99.90
37242;DHT22;23135;51.078;12.108;2023-01-26T01:34:51;-0.40;99.90
37242;DHT22;23135;51.078;12.108;2023-01-26T01:37:17;-0.40;99.90
37242;DHT22;23135;51.078;12.108;2023-01-26T01:39:42;-0.40;99.90
37242;DHT22;23135;51.078;12.108;2023-01-26T01:42:08;-0.40;99.90
37242;DHT22;23135;51.078;12.108;2023-01-26T01:44:35;-0.40;99.90
37242;DHT22;23135;51.078;12.108;2023-01-26T01:47:04;-0.40;99.90
37242;DHT22;23135;51.078;12.108;2023-01-26T01:49:44;-0.40;99.90
37242;DHT22;23135;51.078;12.108;2023-01-26T01:52:37;-0.40;99.90
37242;DHT22;23135;51.078;12.108;2023-01-26T01:55:07;-0.40;99.90
37242;DHT22;23135;51.078;12.108;2023-01-26T01:57:47;-0.50;99.90
37242;DHT22;23135;51.078;12.108;2023-01-26T02:00:21;-0.50;99.90
37242;DHT22;23135;51.078;12.108;2023-01-26T02:02:57;-0.50;99.90
37242;DHT22;23135;51.078;12.108;2023-01-26T02:05:42;-0.50;99.90
37242;DHT22;23135;51.078;12.108;2023-01-26T02:08:10;-0.50;99.90
37242;DHT22;23135;51.078;12.108;2023-01-26T02:10:38;-0.60;99.90
37242;DHT22;23135;51.078;12.108;2023-01-26T02:13:04;-0.60;99.90
37242;DHT22;23135;51.078;12.108;2023-01-26T02:15:30;-0.60;99.90
37242;DHT22;23135;51.078;12.108;2023-01-26T02:17:57;-0.60;99.90
37242;DHT22;23135;51.078;12.108;2023-01-26T02:26:14;-0.70;99.90
37242;DHT22;23135;51.078;12.108;2023-01-26T02:28:42;-0.70;99.90
37242;DHT22;23135;51.078;12.108;2023-01-26T02:31:09;-0.70;99.90
37242;DHT22;23135;51.078;12.108;2023-01-26T02:33:35;-0.80;99.90
37242;DHT22;23135;51.078;12.108;2023-01-26T02:36:01;-0.80;99.90
37242;DHT22;23135;51.078;12.108;2023-01-26T02:38:42;-0.80;99.90
37242;DHT22;23135;51.078;12.108;2023-01-26T02:41:11;-0.80;99.90
37242;DHT22;23135;51.078;12.108;2023-01-26T02:43:59;-0.80;99.90
37242;DHT22;23135;51.078;12.108;2023-01-26T02:46:24;-0.80;99.90
37242;DHT22;23135;51.078;12.108;2023-01-26T02:48:50;-0.80;99.90
37242;DHT22;23135;51.078;12.108;2023-01-26T02:51:34;-0.80;99.90
37242;DHT22;23135;51.078;12.108;2023-01-26T02:53:59;-0.90;99.90
37242;DHT22;23135;51.078;12.108;2023-01-26T02:56:25;-0.90;99.90
37242;DHT22;23135;51.078;12.108;2023-01-26T02:58:50;-0.80;99.90
37242;DHT22;23135;51.078;12.108;2023-01-26T03:01:16;-0.80;99.90
37242;DHT22;23135;51.078;12.108;2023-01-26T03:03:42;-0.80;99.90
37242;DHT22;23135;51.078;12.108;2023-01-26T03:06:10;-0.90;99.90
37242;DHT22;23135;51.078;12.108;2023-01-26T03:08:36;-0.90;99.90
37242;DHT22;23135;51.078;12.108;2023-01-26T03:11:02;-0.90;99.90
37242;DHT22;23135;51.078;12.108;2023-01-26T03:13:28;-0.90;99.90
37242;DHT22;23135;51.078;12.108;2023-01-26T03:15:53;-0.90;99.90
37242;DHT22;23135;51.078;12.108;2023-01-26T03:18:21;-0.90;99.90
37242;DHT22;23135;51.078;12.108;2023-01-26T03:21:15;-0.90;99.90
37242;DHT22;23135;51.078;12.108;2023-01-26T03:24:00;-0.90;99.90
37242;DHT22;23135;51.078;12.108;2023-01-26T03:26:44;-0.90;99.90
37242;DHT22;23135;51.078;12.108;2023-01-26T03:29:29;-0.90;99.90
37242;DHT22;23135;51.078;12.108;2023-01-26T03:31:55;-1.00;99.90
37242;DHT22;23135;51.078;12.108;2023-01-26T03:34:20;-1.00;99.90
37242;DHT22;23135;51.078;12.108;2023-01-26T03:36:47;-0.90;99.90
37242;DHT22;23135;51.078;12.108;2023-01-26T03:39:13;-0.90;99.90
37242;DHT22;23135;51.078;12.108;2023-01-26T03:41:59;-1.00;99.90
37242;DHT22;23135;51.078;12.108;2023-01-26T03:44:43;-1.00;99.90
37242;DHT22;23135;51.078;12.108;2023-01-26T03:47:29;-1.00;99.90
37242;DHT22;23135;51.078;12.108;2023-01-26T03:50:14;-1.00;99.90
37242;DHT22;23135;51.078;12.108;2023-01-26T03:52:59;-1.00;99.90
37242;DHT22;23135;51.078;12.108;2023-01-26T03:55:43;-1.00;99.90
37242;DHT22;23135;51.078;12.108;2023-01-26T03:58:27;-1.00;99.90
37242;DHT22;23135;51.078;12.108;2023-01-26T04:00:55;-1.00;99.90
37242;DHT22;23135;51.078;12.108;2023-01-26T04:03:20;-1.00;99.90
37242;DHT22;23135;51.078;12.108;2023-01-26T04:06:05;-0.90;99.90
37242;DHT22;23135;51.078;12.108;2023-01-26T04:08:49;-1.00;99.90
37242;DHT22;23135;51.078;12.108;2023-01-26T04:11:14;-1.00;99.90
37242;DHT22;23135;51.078;12.108;2023-01-26T04:13:40;-1.00;99.90
37242;DHT22;23135;51.078;12.108;2023-01-26T04:16:24;-1.00;99.90
37242;DHT22;23135;51.078;12.108;2023-01-26T04:19:08;-1.00;99.90
37242;DHT22;23135;51.078;12.108;2023-01-26T04:21:52;-1.00;99.90
37242;DHT22;23135;51.078;12.108;2023-01-26T04:24:18;-1.00;99.90
37242;DHT22;23135;51.078;12.108;2023-01-26T04:26:46;-1.00;99.90
37242;DHT22;23135;51.078;12.108;2023-01-26T04:29:13;-1.00;99.90
37242;DHT22;23135;51.078;12.108;2023-01-26T04:31:40;-1.00;99.90
37242;DHT22;23135;51.078;12.108;2023-01-26T04:34:10;-1.00;99.90
37242;DHT22;23135;51.078;12.108;2023-01-26T04:36:36;-1.00;99.90
37242;DHT22;23135;51.078;12.108;2023-01-26T04:39:01;-1.00;99.90
37242;DHT22;23135;51.078;12.108;2023-01-26T04:41:31;-1.00;99.90
37242;DHT22;23135;51.078;12.108;2023-01-26T04:43:57;-1.00;99.90
37242;DHT22;23135;51.078;12.108;2023-01-26T04:46:22;-1.00;99.90
37242;DHT22;23135;51.078;12.108;2023-01-26T04:48:48;-1.00;99.90
37242;DHT22;23135;51.078;12.108;2023-01-26T04:51:16;-1.00;99.90
37242;DHT22;23135;51.078;12.108;2023-01-26T04:53:41;-1.00;99.90
37242;DHT22;23135;51.078;12.108;2023-01-26T04:56:52;-1.00;99.90
37242;DHT22;23135;51.078;12.108;2023-01-26T04:59:03;-1.10;99.90
37242;DHT22;23135;51.078;12.108;2023-01-26T05:01:29;-1.10;99.90
37242;DHT22;23135;51.078;12.108;2023-01-26T05:03:54;-1.10;99.90
37242;DHT22;23135;51.078;12.108;2023-01-26T05:06:20;-1.00;99.90
37242;DHT22;23135;51.078;12.108;2023-01-26T05:08:46;-1.10;99.90
37242;DHT22;23135;51.078;12.108;2023-01-26T05:11:11;-1.10;99.90
37242;DHT22;23135;51.078;12.108;2023-01-26T05:13:37;-1.10;99.90
37242;DHT22;23135;51.078;12.108;2023-01-26T05:16:04;-1.10;99.90
37242;DHT22;23135;51.078;12.108;2023-01-26T05:18:30;-1.10;99.90
37242;DHT22;23135;51.078;12.108;2023-01-26T05:20:55;-1.10;99.90
37242;DHT22;23135;51.078;12.108;2023-01-26T05:23:22;-1.10;99.90
37242;DHT22;23135;51.078;12.108;2023-01-26T05:25:48;-1.10;99.90
37242;DHT22;23135;51.078;12.108;2023-01-26T05:28:13;-1.10;99.90
37242;DHT22;23135;51.078;12.108;2023-01-26T05:30:39;-1.10;99.90
37242;DHT22;23135;51.078;12.108;2023-01-26T05:33:06;-1.10;99.90
37242;DHT22;23135;51.078;12.108;2023-01-26T05:35:33;-1.10;99.90
37242;DHT22;23135;51.078;12.108;2023-01-26T05:37:59;-1.10;99.90
37242;DHT22;23135;51.078;12.108;2023-01-26T05:40:25;-1.10;99.90
37242;DHT22;23135;51.078;12.108;2023-01-26T05:42:51;-1.10;99.90
37242;DHT22;23135;51.078;12.108;2023-01-26T05:45:17;-1.10;99.90
37242;DHT22;23135;51.078;12.108;2023-01-26T05:47:44;-1.10;99.90
37242;DHT22;23135;51.078;12.108;2023-01-26T05:50:10;-1.10;99.90
37242;DHT22;23135;51.078;12.108;2023-01-26T05:52:36;-1.10;99.90
37242;DHT22;23135;51.078;12.108;2023-01-26T05:55:03;-1.10;99.90
37242;DHT22;23135;51.078;12.108;2023-01-26T05:57:29;-1.10;99.90
37242;DHT22;23135;51.078;12.108;2023-01-26T05:59:54;-1.10;99.90
37242;DHT22;23135;51.078;12.108;2023-01-26T06:02:20;-1.10;99.90
37242;DHT22;23135;51.078;12.108;2023-01-26T06:04:46;-1.10;99.90
37242;DHT22;23135;51.078;12.108;2023-01-26T06:07:11;-1.10;99.90
37242;DHT22;23135;51.078;12.108;2023-01-26T06:09:38;-1.10;99.90
37242;DHT22;23135;51.078;12.108;2023-01-26T06:12:05;-1.10;99.90
37242;DHT22;23135;51.078;12.108;2023-01-26T06:14:30;-1.10;99.90
37242;DHT22;23135;51.078;12.108;2023-01-26T06:16:57;-1.10;99.90
37242;DHT22;23135;51.078;12.108;2023-01-26T06:19:22;-1.10;99.90
37242;DHT22;23135;51.078;12.108;2023-01-26T06:21:48;-1.10;99.90
37242;DHT22;23135;51.078;12.108;2023-01-26T06:24:14;-1.10;99.90
37242;DHT22;23135;51.078;12.108;2023-01-26T06:26:39;-1.10;99.90
37242;DHT22;23135;51.078;12.108;2023-01-26T06:29:05;-1.10;99.90
37242;DHT22;23135;51.078;12.108;2023-01-26T06:31:31;-1.10;99.90
37242;DHT22;23135;51.078;12.108;2023-01-26T06:33:57;-1.10;99.90
37242;DHT22;23135;51.078;12.108;2023-01-26T06:36:22;-1.10;99.90
37242;DHT22;23135;51.078;12.108;2023-01-26T06:38:49;-1.10;99.90
37242;DHT22;23135;51.078;12.108;2023-01-26T06:41:16;-1.10;99.90
37242;DHT22;23135;51.078;12.108;2023-01-26T06:43:45;-1.10;99.90
37242;DHT22;23135;51.078;12.108;2023-01-26T06:46:11;-1.10;99.90
37242;DHT22;23135;51.078;12.108;2023-01-26T06:48:37;-1.10;99.90
37242;DHT22;23135;51.078;12.108;2023-01-26T06:53:57;-1.20;99.90
37242;DHT22;23135;51.078;12.108;2023-01-26T06:56:23;-1.20;99.90
37242;DHT22;23135;51.078;12.108;2023-01-26T06:58:50;-1.20;99.90
37242;DHT22;23135;51.078;12.108;2023-01-26T07:01:20;-1.20;99.90
37242;DHT22;23135;51.078;12.108;2023-01-26T07:03:48;-1.20;99.90
37242;DHT22;23135;51.078;12.108;2023-01-26T07:06:13;-1.30;99.90
37242;DHT22;23135;51.078;12.108;2023-01-26T07:08:39;-1.30;99.90
37242;DHT22;23135;51.078;12.108;2023-01-26T07:11:05;-1.20;99.90
37242;DHT22;23135;51.078;12.108;2023-01-26T07:13:32;-1.20;99.90
37242;DHT22;23135;51.078;12.108;2023-01-26T07:16:06;-1.30;99.90
37242;DHT22;23135;51.078;12.108;2023-01-26T07:18:32;-1.30;99.90
37242;DHT22;23135;51.078;12.108;2023-01-26T07:21:13;-1.20;99.90
37242;DHT22;23135;51.078;12.108;2023-01-26T07:23:39;-1.20;99.90
37242;DHT22;23135;51.078;12.108;2023-01-26T07:26:05;-1.20;99.90
37242;DHT22;23135;51.078;12.108;2023-01-26T07:28:31;-1.20;99.90
37242;DHT22;23135;51.078;12.108;2023-01-26T07:30:59;-1.20;99.90
37242;DHT22;23135;51.078;12.108;2023-01-26T07:33:27;-1.10;99.90
37242;DHT22;23135;51.078;12.108;2023-01-26T07:35:53;-1.10;99.90
37242;DHT22;23135;51.078;12.108;2023-01-26T07:38:19;-1.10;99.90
37242;DHT22;23135;51.078;12.108;2023-01-26T07:40:45;-1.10;99.90
37242;DHT22;23135;51.078;12.108;2023-01-26T07:43:10;-1.00;99.90
37242;DHT22;23135;51.078;12.108;2023-01-26T07:45:36;-1.00;99.90
37242;DHT22;23135;51.078;12.108;2023-01-26T07:48:02;-1.00;99.90
37242;DHT22;23135;51.078;12.108;2023-01-26T07:50:27;-1.00;99.90
37242;DHT22;23135;51.078;12.108;2023-01-26T07:52:53;-1.00;99.90
37242;DHT22;23135;51.078;12.108;2023-01-26T07:55:19;-1.00;99.90
37242;DHT22;23135;51.078;12.108;2023-01-26T07:57:48;-1.00;99.90
37242;DHT22;23135;51.078;12.108;2023-01-26T08:00:15;-1.00;99.90
37242;DHT22;23135;51.078;12.108;2023-01-26T08:02:41;-1.00;99.90
37242;DHT22;23135;51.078;12.108;2023-01-26T08:05:07;-1.10;99.90
37242;DHT22;23135;51.078;12.108;2023-01-26T08:07:32;-1.10;99.90
37242;DHT22;23135;51.078;12.108;2023-01-26T08:09:58;-1.10;99.90
37242;DHT22;23135;51.078;12.108;2023-01-26T08:12:24;-1.10;99.90
37242;DHT22;23135;51.078;12.108;2023-01-26T08:14:50;-1.20;99.90
37242;DHT22;23135;51.078;12.108;2023-01-26T08:17:15;-1.20;99.90
37242;DHT22;23135;51.078;12.108;2023-01-26T08:19:42;-1.20;99.90
37242;DHT22;23135;51.078;12.108;2023-01-26T08:22:08;-1.20;99.90
37242;DHT22;23135;51.078;12.108;2023-01-26T08:24:33;-1.20;99.90
37242;DHT22;23135;51.078;12.108;2023-01-26T08:26:59;-1.20;99.90
37242;DHT22;23135;51.078;12.108;2023-01-26T08:29:24;-1.20;99.90
37242;DHT22;23135;51.078;12.108;2023-01-26T08:31:50;-1.20;99.90
37242;DHT22;23135;51.078;12.108;2023-01-26T08:34:16;-1.20;99.90
37242;DHT22;23135;51.078;12.108;2023-01-26T08:36:41;-1.20;99.90
37242;DHT22;23135;51.078;12.108;2023-01-26T08:39:07;-1.20;99.90
37242;DHT22;23135;51.078;12.108;2023-01-26T08:41:32;-1.20;99.90
37242;DHT22;23135;51.078;12.108;2023-01-26T08:43:58;-1.20;99.90
37242;DHT22;23135;51.078;12.108;2023-01-26T08:46:24;-1.20;99.90
37242;DHT22;23135;51.078;12.108;2023-01-26T08:48:50;-1.20;99.90
37242;DHT22;23135;51.078;12.108;2023-01-26T08:51:16;-1.20;99.90
37242;DHT22;23135;51.078;12.108;2023-01-26T08:53:41;-1.20;99.90
37242;DHT22;23135;51.078;12.108;2023-01-26T08:56:10;-1.10;99.90
37242;DHT22;23135;51.078;12.108;2023-01-26T08:58:36;-1.10;99.90
37242;DHT22;23135;51.078;12.108;2023-01-26T09:01:11;-1.00;99.90
37242;DHT22;23135;51.078;12.108;2023-01-26T09:03:37;-0.90;99.90
37242;DHT22;23135;51.078;12.108;2023-01-26T09:06:04;-0.90;99.90
37242;DHT22;23135;51.078;12.108;2023-01-26T09:08:30;-0.90;99.90
37242;DHT22;23135;51.078;12.108;2023-01-26T09:10:56;-0.80;99.90
37242;DHT22;23135;51.078;12.108;2023-01-26T09:13:22;-0.70;99.90
37242;DHT22;23135;51.078;12.108;2023-01-26T09:15:48;-0.70;99.90
37242;DHT22;23135;51.078;12.108;2023-01-26T09:18:13;-0.80;99.90
37242;DHT22;23135;51.078;12.108;2023-01-26T09:20:39;-0.80;99.90
37242;DHT22;23135;51.078;12.108;2023-01-26T09:23:05;-0.80;99.90
37242;DHT22;23135;51.078;12.108;2023-01-26T09:25:31;-0.90;99.90
37242;DHT22;23135;51.078;12.108;2023-01-26T09:28:01;-1.00;99.90
37242;DHT22;23135;51.078;12.108;2023-01-26T09:30:26;-1.00;99.90
37242;DHT22;23135;51.078;12.108;2023-01-26T09:33:00;-1.00;99.90
37242;DHT22;23135;51.078;12.108;2023-01-26T09:35:27;-1.00;99.90
37242;DHT22;23135;51.078;12.108;2023-01-26T09:37:52;-0.90;99.90
37242;DHT22;23135;51.078;12.108;2023-01-26T09:40:34;-0.90;99.90
37242;DHT22;23135;51.078;12.108;2023-01-26T09:48:29;-0.90;99.90
37242;DHT22;23135;51.078;12.108;2023-01-26T09:51:27;-0.90;99.90
37242;DHT22;23135;51.078;12.108;2023-01-26T09:54:03;-0.90;99.90
37242;DHT22;23135;51.078;12.108;2023-01-26T09:56:30;-0.90;99.90
37242;DHT22;23135;51.078;12.108;2023-01-26T10:01:55;-0.90;99.90
37242;DHT22;23135;51.078;12.108;2023-01-26T10:04:33;-0.80;99.90
37242;DHT22;23135;51.078;12.108;2023-01-26T10:07:09;-0.80;99.90
37242;DHT22;23135;51.078;12.108;2023-01-26T10:09:37;-0.80;99.90
37242;DHT22;23135;51.078;12.108;2023-01-26T10:12:07;-0.70;99.90
37242;DHT22;23135;51.078;12.108;2023-01-26T10:15:04;-0.60;99.90
37242;DHT22;23135;51.078;12.108;2023-01-26T10:17:38;-0.70;99.90
37242;DHT22;23135;51.078;12.108;2023-01-26T10:22:49;-0.80;99.90
37242;DHT22;23135;51.078;12.108;2023-01-26T10:25:29;-0.80;99.90
37242;DHT22;23135;51.078;12.108;2023-01-26T10:27:57;-0.80;99.90
37242;DHT22;23135;51.078;12.108;2023-01-26T10:30:23;-0.90;99.90
37242;DHT22;23135;51.078;12.108;2023-01-26T10:32:51;-1.00;99.90
37242;DHT22;23135;51.078;12.108;2023-01-26T10:35:19;-1.00;99.90
37242;DHT22;23135;51.078;12.108;2023-01-26T10:37:45;-1.00;99.90
37242;DHT22;23135;51.078;12.108;2023-01-26T10:40:12;-1.00;99.90
37242;DHT22;23135;51.078;12.108;2023-01-26T10:42:38;-1.00;99.90
37242;DHT22;23135;51.078;12.108;2023-01-26T10:45:50;-1.00;99.90
37242;DHT22;23135;51.078;12.108;2023-01-26T10:50:40;-1.10;99.90
37242;DHT22;23135;51.078;12.108;2023-01-26T10:53:10;-1.10;99.90
37242;DHT22;23135;51.078;12.108;2023-01-26T10:55:38;-1.10;99.90
37242;DHT22;23135;51.078;12.108;2023-01-26T10:58:04;-1.20;99.90
37242;DHT22;23135;51.078;12.108;2023-01-26T11:00:32;-1.20;99.90
37242;DHT22;23135;51.078;12.108;2023-01-26T11:03:17;-1.20;99.90
37242;DHT22;23135;51.078;12.108;2023-01-26T11:05:42;-1.20;99.90
37242;DHT22;23135;51.078;12.108;2023-01-26T11:08:36;-1.20;99.90
37242;DHT22;23135;51.078;12.108;2023-01-26T11:11:03;-1.20;99.90
37242;DHT22;23135;51.078;12.108;2023-01-26T11:13:29;-1.20;99.90
37242;DHT22;23135;51.078;12.108;2023-01-26T11:16:19;-1.30;99.90
37242;DHT22;23135;51.078;12.108;2023-01-26T11:19:02;-1.20;99.90
37242;DHT22;23135;51.078;12.108;2023-01-26T11:21:39;-1.20;99.90
37242;DHT22;23135;51.078;12.108;2023-01-26T11:27:07;-1.30;99.90
37242;DHT22;23135;51.078;12.108;2023-01-26T11:29:50;-1.30;99.90
37242;DHT22;23135;51.078;12.108;2023-01-26T11:35:14;-1.20;99.90
37242;DHT22;23135;51.078;12.108;2023-01-26T11:37:47;-1.10;99.90
37242;DHT22;23135;51.078;12.108;2023-01-26T11:48:20;-1.10;99.90
37242;DHT22;23135;51.078;12.108;2023-01-26T11:51:03;-1.10;99.90
37242;DHT22;23135;51.078;12.108;2023-01-26T11:53:55;-1.10;99.90
37242;DHT22;23135;51.078;12.108;2023-01-26T11:56:48;-1.10;99.90
37242;DHT22;23135;51.078;12.108;2023-01-26T11:59:29;-1.10;99.90
37242;DHT22;23135;51.078;12.108;2023-01-26T12:01:58;-1.10;99.90
37242;DHT22;23135;51.078;12.108;2023-01-26T12:04:25;-1.10;99.90
37242;DHT22;23135;51.078;12.108;2023-01-26T12:06:59;-1.10;99.90
37242;DHT22;23135;51.078;12.108;2023-01-26T12:09:44;-1.00;99.90
37242;DHT22;23135;51.078;12.108;2023-01-26T12:12:40;-1.00;99.90
37242;DHT22;23135;51.078;12.108;2023-01-26T12:15:11;-1.00;99.90
37242;DHT22;23135;51.078;12.108;2023-01-26T12:17:47;-1.00;99.90
37242;DHT22;23135;51.078;12.108;2023-01-26T12:20:35;-1.00;99.90
37242;DHT22;23135;51.078;12.108;2023-01-26T12:26:05;-1.00;99.90
37242;DHT22;23135;51.078;12.108;2023-01-26T12:29:02;-1.10;99.90
37242;DHT22;23135;51.078;12.108;2023-01-26T12:31:37;-1.10;99.90
37242;DHT22;23135;51.078;12.108;2023-01-26T12:34:09;-1.10;99.90
37242;DHT22;23135;51.078;12.108;2023-01-26T12:39:43;-1.10;99.90
37242;DHT22;23135;51.078;12.108;2023-01-26T12:42:38;-1.10;99.90
37242;DHT22;23135;51.078;12.108;2023-01-26T12:45:27;-1.20;99.90
37242;DHT22;23135;51.078;12.108;2023-01-26T12:48:00;-1.20;99.90
37242;DHT22;23135;51.078;12.108;2023-01-26T12:51:01;-1.20;99.90
37242;DHT22;23135;51.078;12.108;2023-01-26T12:53:29;-1.20;99.90
37242;DHT22;23135;51.078;12.108;2023-01-26T12:58:45;-1.10;99.90
37242;DHT22;23135;51.078;12.108;2023-01-26T13:01:13;-1.10;99.90
37242;DHT22;23135;51.078;12.108;2023-01-26T13:03:54;-1.20;99.90
37242;DHT22;23135;51.078;12.108;2023-01-26T13:06:26;-1.20;99.90
37242;DHT22;23135;51.078;12.108;2023-01-26T13:08:59;-1.20;99.90
37242;DHT22;23135;51.078;12.108;2023-01-26T13:14:30;-1.20;99.90
37242;DHT22;23135;51.078;12.108;2023-01-26T13:16:57;-1.20;99.90
37242;DHT22;23135;51.078;12.108;2023-01-26T13:24:45;-1.20;99.90
37242;DHT22;23135;51.078;12.108;2023-01-26T13:33:07;-1.20;99.90
37242;DHT22;23135;51.078;12.108;2023-01-26T13:35:34;-1.20;99.90
37242;DHT22;23135;51.078;12.108;2023-01-26T13:38:15;-1.20;99.90
37242;DHT22;23135;51.078;12.108;2023-01-26T13:40:45;-1.20;99.90
37242;DHT22;23135;51.078;12.108;2023-01-26T13:45:59;-1.20;99.90
37242;DHT22;23135;51.078;12.108;2023-01-26T13:48:42;-1.20;99.90
37242;DHT22;23135;51.078;12.108;2023-01-26T13:56:35;-1.30;99.90
37242;DHT22;23135;51.078;12.108;2023-01-26T13:59:13;-1.30;99.90
37242;DHT22;23135;51.078;12.108;2023-01-26T14:01:53;-1.20;99.90
37242;DHT22;23135;51.078;12.108;2023-01-26T14:04:30;-1.30;99.90
37242;DHT22;23135;51.078;12.108;2023-01-26T14:07:13;-1.30;99.90
37242;DHT22;23135;51.078;12.108;2023-01-26T14:09:49;-1.30;99.90
37242;DHT22;23135;51.078;12.108;2023-01-26T14:12:24;-1.30;99.90
37242;DHT22;23135;51.078;12.108;2023-01-26T14:14:56;-1.30;99.90
37242;DHT22;23135;51.078;12.108;2023-01-26T14:17:46;-1.20;99.90
37242;DHT22;23135;51.078;12.108;2023-01-26T14:20:34;-1.30;99.90
37242;DHT22;23135;51.078;12.108;2023-01-26T14:23:11;-1.30;99.90
37242;DHT22;23135;51.078;12.108;2023-01-26T14:25:55;-1.30;99.90
37242;DHT22;23135;51.078;12.108;2023-01-26T14:28:22;-1.30;99.90
37242;DHT22;23135;51.078;12.108;2023-01-26T14:30:56;-1.30;99.90
37242;DHT22;23135;51.078;12.108;2023-01-26T14:33:24;-1.30;99.90
37242;DHT22;23135;51.078;12.108;2023-01-26T14:35:58;-1.30;99.90
37242;DHT22;23135;51.078;12.108;2023-01-26T14:38:26;-1.30;99.90
37242;DHT22;23135;51.078;12.108;2023-01-26T14:40:57;-1.40;99.90
37242;DHT22;23135;51.078;12.108;2023-01-26T14:43:24;-1.40;99.90
37242;DHT22;23135;51.078;12.108;2023-01-26T14:46:04;-1.30;99.90
37242;DHT22;23135;51.078;12.108;2023-01-26T14:48:36;-1.40;99.90
37242;DHT22;23135;51.078;12.108;2023-01-26T14:51:04;-1.40;99.90
37242;DHT22;23135;51.078;12.108;2023-01-26T14:53:31;-1.40;99.90
37242;DHT22;23135;51.078;12.108;2023-01-26T14:55:56;-1.40;99.90
37242;DHT22;23135;51.078;12.108;2023-01-26T14:58:32;-1.40;99.90
37242;DHT22;23135;51.078;12.108;2023-01-26T15:00:59;-1.30;99.90
37242;DHT22;23135;51.078;12.108;2023-01-26T15:03:32;-1.30;99.90
37242;DHT22;23135;51.078;12.108;2023-01-26T15:06:18;-1.30;99.90
37242;DHT22;23135;51.078;12.108;2023-01-26T15:11:28;-1.30;99.90
37242;DHT22;23135;51.078;12.108;2023-01-26T15:17:38;-1.30;99.90
37242;DHT22;23135;51.078;12.108;2023-01-26T15:22:39;-1.30;99.90
37242;DHT22;23135;51.078;12.108;2023-01-26T15:25:26;-1.30;99.90
37242;DHT22;23135;51.078;12.108;2023-01-26T15:27:54;-1.30;99.90
37242;DHT22;23135;51.078;12.108;2023-01-26T15:30:25;-1.30;99.90
37242;DHT22;23135;51.078;12.108;2023-01-26T15:32:51;-1.40;99.90
37242;DHT22;23135;51.078;12.108;2023-01-26T15:35:26;-1.30;99.90
37242;DHT22;23135;51.078;12.108;2023-01-26T15:38:24;-1.30;99.90
37242;DHT22;23135;51.078;12.108;2023-01-26T15:40:50;-1.30;99.90
37242;DHT22;23135;51.078;12.108;2023-01-26T15:43:17;-1.30;99.90
37242;DHT22;23135;51.078;12.108;2023-01-26T15:45:55;-1.40;99.90
37242;DHT22;23135;51.078;12.108;2023-01-26T15:48:23;-1.40;99.90
37242;DHT22;23135;51.078;12.108;2023-01-26T15:50:49;-1.40;99.90
37242;DHT22;23135;51.078;12.108;2023-01-26T15:53:16;-1.40;99.90
37242;DHT22;23135;51.078;12.108;2023-01-26T15:55:44;-1.40;99.90
37242;DHT22;23135;51.078;12.108;2023-01-26T15:58:11;-1.40;99.90
37242;DHT22;23135;51.078;12.108;2023-01-26T16:00:37;-1.40;99.90
37242;DHT22;23135;51.078;12.108;2023-01-26T16:03:09;-1.40;99.90
37242;DHT22;23135;51.078;12.108;2023-01-26T16:05:36;-1.40;99.90
37242;DHT22;23135;51.078;12.108;2023-01-26T16:08:02;-1.40;99.90
37242;DHT22;23135;51.078;12.108;2023-01-26T16:10:27;-1.40;99.90
37242;DHT22;23135;51.078;12.108;2023-01-26T16:12:53;-1.40;99.90
37242;DHT22;23135;51.078;12.108;2023-01-26T16:15:46;-1.50;99.90
37242;DHT22;23135;51.078;12.108;2023-01-26T16:18:12;-1.50;99.90
37242;DHT22;23135;51.078;12.108;2023-01-26T16:20:40;-1.50;99.90
37242;DHT22;23135;51.078;12.108;2023-01-26T16:23:24;-1.50;99.90
37242;DHT22;23135;51.078;12.108;2023-01-26T16:25:50;-1.50;99.90
37242;DHT22;23135;51.078;12.108;2023-01-26T16:28:16;-1.50;99.90
37242;DHT22;23135;51.078;12.108;2023-01-26T16:30:43;-1.50;99.90
37242;DHT22;23135;51.078;12.108;2023-01-26T16:33:14;-1.60;99.90
37242;DHT22;23135;51.078;12.108;2023-01-26T16:35:41;-1.50;99.90
37242;DHT22;23135;51.078;12.108;2023-01-26T16:38:07;-1.60;99.90
37242;DHT22;23135;51.078;12.108;2023-01-26T16:40:46;-1.60;99.90
37242;DHT22;23135;51.078;12.108;2023-01-26T16:43:19;-1.50;99.90
37242;DHT22;23135;51.078;12.108;2023-01-26T16:45:44;-1.60;99.90
37242;DHT22;23135;51.078;12.108;2023-01-26T16:48:12;-1.50;99.90
37242;DHT22;23135;51.078;12.108;2023-01-26T16:50:38;-1.60;99.90
37242;DHT22;23135;51.078;12.108;2023-01-26T16:53:22;-1.50;99.90